createdAt,value
2023-01-22T00:01:09.184Z,141.70
2023-01-22T00:03:40.255Z,145.00
2023-01-22T00:06:09.667Z,169.20
2023-01-22T00:08:37.609Z,161.90
2023-01-22T00:11:05.500Z,184.20
2023-01-22T00:13:33.359Z,203.20
2023-01-22T00:16:01.235Z,251.10
2023-01-22T00:18:29.021Z,235.40
2023-01-22T00:20:56.724Z,250.50
2023-01-22T00:23:24.964Z,228.20
2023-01-22T00:26:04.007Z,215.60
2023-01-22T00:28:32.221Z,215.50
2023-01-22T00:31:01.457Z,240.50
2023-01-22T00:33:29.546Z,240.10
2023-01-22T00:35:57.859Z,229.80
2023-01-22T00:38:25.490Z,243.30
2023-01-22T00:40:53.123Z,281.40
2023-01-22T00:43:20.891Z,250.50
2023-01-22T00:45:48.601Z,234.70
2023-01-22T00:48:16.300Z,213.80
2023-01-22T00:50:43.978Z,239.90
2023-01-22T00:53:11.711Z,231.20
2023-01-22T00:55:39.459Z,278.90
2023-01-22T00:58:07.160Z,250.60
2023-01-22T01:00:34.970Z,283.40
2023-01-22T01:03:21.516Z,221.60
2023-01-22T01:05:49.198Z,258.10
2023-01-22T01:08:18.736Z,221.80
2023-01-22T01:10:46.381Z,203.40
2023-01-22T01:13:14.211Z,294.40
2023-01-22T01:15:43.338Z,242.70
2023-01-22T01:18:13.157Z,289.50
2023-01-22T01:20:41.106Z,274.70
2023-01-22T01:23:08.783Z,313.00
2023-01-22T01:25:40.105Z,304.80
2023-01-22T01:28:07.721Z,246.10
2023-01-22T01:30:35.480Z,224.10
2023-01-22T01:33:03.154Z,238.10
2023-01-22T01:35:31.165Z,306.60
2023-01-22T01:37:58.846Z,318.70
2023-01-22T01:40:26.539Z,273.70
2023-01-22T01:42:54.243Z,364.20
2023-01-22T01:45:32.805Z,265.40
2023-01-22T01:48:24.745Z,282.80
2023-01-22T01:51:01.650Z,227.50
2023-01-22T01:53:29.717Z,272.00
2023-01-22T01:55:58.124Z,209.30
2023-01-22T01:58:27.112Z,290.20
2023-01-22T02:01:00.958Z,219.90
2023-01-22T02:03:29.573Z,242.70
2023-01-22T02:05:57.344Z,286.80
2023-01-22T02:08:25.342Z,223.40
2023-01-22T02:10:53.585Z,330.20
2023-01-22T02:13:25.855Z,211.10
2023-01-22T02:15:53.928Z,311.70
2023-01-22T02:18:21.647Z,241.90
2023-01-22T02:21:00.882Z,240.60
2023-01-22T02:23:30.749Z,238.20
2023-01-22T02:25:58.909Z,260.80
2023-01-22T02:28:26.843Z,257.10
2023-01-22T02:30:55.657Z,312.80
2023-01-22T02:33:23.596Z,320.50
2023-01-22T02:35:51.200Z,380.70
2023-01-22T02:38:18.844Z,375.50
2023-01-22T02:40:49.459Z,287.10
2023-01-22T02:43:19.795Z,279.00
2023-01-22T02:45:47.796Z,322.10
2023-01-22T02:48:16.110Z,329.10
2023-01-22T02:50:45.143Z,309.40
2023-01-22T02:53:13.864Z,333.30
2023-01-22T02:55:44.866Z,356.40
2023-01-22T02:58:12.640Z,339.80
2023-01-22T03:00:41.039Z,356.60
2023-01-22T03:03:15.527Z,306.90
2023-01-22T03:05:52.988Z,320.30
2023-01-22T03:08:20.634Z,333.60
2023-01-22T03:10:48.314Z,289.20
2023-01-22T03:13:34.991Z,280.80
2023-01-22T03:16:22.533Z,315.80
2023-01-22T03:19:10.395Z,317.40
2023-01-22T03:21:44.117Z,282.80
2023-01-22T03:24:11.956Z,252.10
2023-01-22T03:26:39.867Z,289.90
2023-01-22T03:29:07.648Z,259.20
2023-01-22T03:31:35.943Z,244.90
2023-01-22T03:34:03.707Z,261.50
2023-01-22T03:36:31.690Z,210.70
2023-01-22T03:39:01.428Z,225.30
2023-01-22T03:41:29.200Z,250.70
2023-01-22T03:43:58.930Z,267.90
2023-01-22T03:46:27.431Z,219.30
2023-01-22T03:48:56.905Z,226.30
2023-01-22T03:51:25.125Z,256.10
2023-01-22T03:53:52.888Z,271.80
2023-01-22T03:56:22.572Z,232.80
2023-01-22T03:58:50.813Z,285.40
2023-01-22T04:01:21.855Z,307.40
2023-01-22T04:03:51.059Z,231.20
2023-01-22T04:06:20.159Z,196.00
2023-01-22T04:08:50.068Z,225.30
2023-01-22T04:11:18.663Z,184.70
2023-01-22T04:13:46.573Z,202.10
2023-01-22T04:16:16.064Z,200.60
2023-01-22T04:19:14.632Z,182.30
2023-01-22T04:22:11.305Z,164.40
2023-01-22T04:24:39.228Z,201.10
2023-01-22T04:27:06.952Z,155.10
2023-01-22T04:29:34.668Z,157.60
2023-01-22T04:32:02.564Z,205.40
2023-01-22T04:34:48.667Z,175.70
2023-01-22T04:37:22.205Z,170.00
2023-01-22T04:39:49.896Z,155.40
2023-01-22T04:42:18.298Z,146.60
2023-01-22T04:44:46.008Z,165.10
2023-01-22T04:47:13.715Z,114.40
2023-01-22T04:49:41.991Z,121.80
2023-01-22T04:52:13.517Z,119.20
2023-01-22T04:54:41.189Z,110.80
2023-01-22T04:57:09.568Z,106.00
2023-01-22T04:59:37.651Z,136.70
2023-01-22T05:02:05.654Z,118.90
2023-01-22T05:04:33.839Z,116.70
2023-01-22T05:07:01.558Z,117.70
2023-01-22T05:09:29.237Z,126.40
2023-01-22T05:12:00.725Z,141.70
2023-01-22T05:14:32.815Z,121.10
2023-01-22T05:17:02.092Z,123.60
2023-01-22T05:19:29.744Z,131.60
2023-01-22T05:21:57.514Z,126.00
2023-01-22T05:24:25.836Z,132.10
2023-01-22T05:26:53.576Z,163.80
2023-01-22T05:29:28.365Z,181.90
2023-01-22T05:32:08.376Z,175.90
2023-01-22T05:34:42.071Z,171.50
2023-01-22T05:37:10.823Z,179.00
2023-01-22T05:39:38.509Z,136.10
2023-01-22T05:42:13.849Z,148.00
2023-01-22T05:44:42.731Z,144.30
2023-01-22T05:47:13.037Z,144.00
2023-01-22T05:49:51.619Z,151.20
2023-01-22T05:52:19.383Z,165.20
2023-01-22T05:54:48.094Z,161.30
2023-01-22T05:57:15.783Z,147.30
2023-01-22T05:59:44.111Z,155.40
2023-01-22T06:02:11.884Z,141.70
2023-01-22T06:04:43.837Z,123.10
2023-01-22T06:07:24.815Z,151.30
2023-01-22T06:09:53.589Z,158.80
2023-01-22T06:12:21.270Z,131.30
2023-01-22T06:14:48.965Z,122.40
2023-01-22T06:17:16.855Z,140.20
2023-01-22T06:19:54.500Z,129.70
2023-01-22T06:22:22.562Z,150.10
2023-01-22T06:24:56.210Z,137.00
2023-01-22T06:27:26.691Z,148.90
2023-01-22T06:30:00.375Z,125.90
2023-01-22T06:32:28.444Z,124.20
2023-01-22T06:34:56.144Z,150.30
2023-01-22T06:37:24.244Z,176.80
2023-01-22T06:39:52.587Z,148.10
2023-01-22T06:42:27.240Z,128.80
2023-01-22T06:44:55.033Z,128.80
2023-01-22T06:47:24.116Z,118.40
2023-01-22T06:49:51.806Z,135.20
2023-01-22T06:52:19.443Z,132.10
2023-01-22T06:54:47.488Z,126.30
2023-01-22T06:57:15.329Z,135.90
2023-01-22T06:59:43.115Z,115.70
2023-01-22T07:02:16.511Z,118.40
2023-01-22T07:04:44.324Z,129.50
2023-01-22T07:07:12.223Z,138.50
2023-01-22T07:09:39.897Z,119.00
2023-01-22T07:12:07.611Z,149.40
2023-01-22T07:14:37.458Z,120.50
2023-01-22T07:17:05.877Z,138.30
2023-01-22T07:19:33.619Z,123.70
2023-01-22T07:22:01.392Z,114.60
2023-01-22T07:24:29.085Z,129.90
2023-01-22T07:26:56.730Z,127.70
2023-01-22T07:29:24.399Z,115.40
2023-01-22T07:31:52.117Z,103.90
2023-01-22T07:34:20.017Z,100.80
2023-01-22T07:36:47.743Z,124.40
2023-01-22T07:39:15.451Z,124.70
2023-01-22T07:41:43.101Z,106.00
2023-01-22T07:44:12.526Z,105.70
2023-01-22T07:46:40.419Z,97.30
2023-01-22T07:49:08.106Z,94.40
2023-01-22T07:51:35.734Z,97.60
2023-01-22T07:54:03.533Z,101.00
2023-01-22T07:56:31.316Z,104.30
2023-01-22T07:58:59.070Z,99.50
2023-01-22T08:01:26.765Z,95.00
2023-01-22T08:03:54.392Z,81.30
2023-01-22T08:06:22.299Z,90.60
2023-01-22T08:08:50.439Z,100.60
2023-01-22T08:11:18.850Z,98.70
2023-01-22T08:13:46.503Z,85.10
2023-01-22T08:16:14.155Z,110.90
2023-01-22T08:18:42.023Z,89.70
2023-01-22T08:21:09.671Z,92.10
2023-01-22T08:23:37.321Z,92.50
2023-01-22T08:26:05.168Z,80.00
2023-01-22T08:28:32.908Z,95.00
2023-01-22T08:31:03.570Z,88.70
2023-01-22T08:33:33.173Z,86.80
2023-01-22T08:36:00.902Z,97.10
2023-01-22T08:38:28.677Z,91.70
2023-01-22T08:40:56.342Z,91.10
2023-01-22T08:43:24.145Z,95.80
2023-01-22T08:45:51.836Z,91.50
2023-01-22T08:48:19.586Z,91.30
2023-01-22T08:50:47.340Z,94.30
2023-01-22T08:53:15.076Z,106.70
2023-01-22T08:55:48.893Z,84.60
2023-01-22T08:58:16.517Z,97.80
2023-01-22T09:00:46.930Z,104.50
2023-01-22T09:03:14.720Z,106.30
2023-01-22T09:05:42.816Z,96.10
2023-01-22T09:08:10.457Z,107.30
2023-01-22T09:10:38.294Z,109.80
2023-01-22T09:13:06.379Z,110.40
2023-01-22T09:15:34.028Z,122.50
2023-01-22T09:18:01.732Z,120.60
2023-01-22T09:20:29.371Z,145.70
2023-01-22T09:22:57.181Z,168.70
2023-01-22T09:25:26.357Z,170.20
2023-01-22T09:27:59.219Z,119.90
2023-01-22T09:30:30.178Z,128.40
2023-01-22T09:32:58.127Z,115.80
2023-01-22T09:35:27.346Z,132.10
2023-01-22T09:37:55.436Z,156.80
2023-01-22T09:40:36.971Z,173.80
2023-01-22T09:43:25.950Z,120.20
2023-01-22T09:45:57.184Z,132.90
2023-01-22T09:48:40.259Z,206.00
2023-01-22T09:51:11.782Z,150.00
2023-01-22T09:53:39.479Z,176.10
2023-01-22T09:56:07.768Z,154.00
2023-01-22T09:58:35.939Z,170.70
2023-01-22T10:01:05.732Z,141.90
2023-01-22T10:03:46.149Z,163.10
2023-01-22T10:06:18.326Z,158.40
2023-01-22T10:09:00.605Z,216.70
2023-01-22T10:11:28.294Z,185.00
2023-01-22T10:14:00.144Z,226.00
2023-01-22T10:16:28.564Z,199.40
2023-01-22T10:19:14.541Z,194.30
2023-01-22T10:21:55.674Z,172.30
2023-01-22T10:24:23.318Z,152.00
2023-01-22T10:26:54.434Z,188.70
2023-01-22T10:29:26.268Z,204.60
2023-01-22T10:31:56.694Z,183.40
2023-01-22T10:34:32.882Z,234.50
2023-01-22T10:37:03.397Z,216.80
2023-01-22T10:39:42.294Z,237.60
2023-01-22T10:42:16.931Z,194.90
2023-01-22T10:44:44.689Z,238.70
2023-01-22T10:47:23.866Z,202.00
2023-01-22T10:50:04.596Z,202.50
2023-01-22T10:52:44.949Z,192.80
2023-01-22T10:55:32.686Z,213.20
2023-01-22T10:58:05.388Z,226.60
2023-01-22T11:00:50.435Z,224.00
2023-01-22T11:03:29.413Z,225.60
2023-01-22T11:06:03.886Z,229.80
2023-01-22T11:08:40.566Z,276.40
2023-01-22T11:11:10.175Z,249.90
2023-01-22T11:13:37.906Z,214.80
2023-01-22T11:16:09.666Z,285.10
2023-01-22T11:18:41.280Z,244.40
2023-01-22T11:21:17.039Z,213.80
2023-01-22T11:23:55.963Z,218.90
2023-01-22T11:26:42.204Z,227.30
2023-01-22T11:29:12.566Z,277.10
2023-01-22T11:32:07.776Z,224.70
2023-01-22T11:34:46.338Z,235.00
2023-01-22T11:37:31.360Z,242.00
2023-01-22T11:40:17.177Z,283.60
2023-01-22T11:43:04.046Z,311.30
2023-01-22T11:45:54.004Z,256.30
2023-01-22T11:48:48.818Z,311.70
2023-01-22T11:51:25.852Z,324.90
2023-01-22T11:54:04.619Z,318.60
2023-01-22T11:56:41.091Z,279.60
2023-01-22T11:59:16.313Z,266.70
2023-01-22T12:02:08.707Z,336.30
2023-01-22T12:04:50.120Z,363.40
2023-01-22T12:07:31.344Z,373.50
2023-01-22T12:10:11.968Z,341.60
2023-01-22T12:12:42.385Z,283.20
2023-01-22T12:15:23.243Z,346.70
2023-01-22T12:17:54.832Z,319.30
2023-01-22T12:20:40.694Z,312.70
2023-01-22T12:23:18.218Z,356.80
2023-01-22T12:26:04.501Z,282.90
2023-01-22T12:28:45.543Z,270.50
2023-01-22T12:31:19.410Z,257.30
2023-01-22T12:33:47.242Z,290.00
2023-01-22T12:36:20.012Z,260.30
2023-01-22T12:39:01.483Z,269.80
2023-01-22T12:41:51.147Z,282.40
2023-01-22T12:44:37.632Z,1627.60
2023-01-22T12:47:18.119Z,389.40
2023-01-22T12:49:51.927Z,220.00
2023-01-22T12:52:37.062Z,246.70
2023-01-22T12:55:30.569Z,338.90
2023-01-22T12:57:58.700Z,363.30
2023-01-22T13:00:44.578Z,305.10
2023-01-22T13:03:33.226Z,332.00
2023-01-22T13:06:03.597Z,370.90
2023-01-22T13:08:49.498Z,586.30
2023-01-22T13:11:32.977Z,289.80
2023-01-22T13:14:15.528Z,305.20
2023-01-22T13:16:52.894Z,321.90
2023-01-22T13:19:26.668Z,285.00
2023-01-22T13:21:58.816Z,242.40
2023-01-22T13:24:27.074Z,361.00
2023-01-22T13:27:02.471Z,478.10
2023-01-22T13:29:37.340Z,284.30
2023-01-22T13:32:16.297Z,414.30
2023-01-22T13:34:43.968Z,531.40
2023-01-22T13:37:38.775Z,461.40
2023-01-22T13:40:15.291Z,362.60
2023-01-22T13:42:45.440Z,218.40
2023-01-22T13:45:22.948Z,197.20
2023-01-22T13:47:56.283Z,205.70
2023-01-22T13:50:27.937Z,200.60
2023-01-22T13:53:00.128Z,194.90
2023-01-22T13:55:28.739Z,191.20
2023-01-22T13:57:57.986Z,445.10
2023-01-22T14:00:27.529Z,208.50
2023-01-22T14:02:55.755Z,330.70
2023-01-22T14:05:26.083Z,217.30
2023-01-22T14:08:07.908Z,247.60
2023-01-22T14:10:36.154Z,188.00
2023-01-22T14:13:11.910Z,164.90
2023-01-22T14:15:40.678Z,183.10
2023-01-22T14:18:13.503Z,213.40
2023-01-22T14:20:42.759Z,253.70
2023-01-22T14:23:11.067Z,234.80
2023-01-22T14:25:50.639Z,214.90
2023-01-22T14:28:18.949Z,180.00
2023-01-22T14:30:46.755Z,176.90
2023-01-22T14:33:24.107Z,166.50
2023-01-22T14:35:53.347Z,164.70
2023-01-22T14:38:21.915Z,201.20
2023-01-22T14:40:49.631Z,164.20
2023-01-22T14:43:17.798Z,143.80
2023-01-22T14:45:46.341Z,197.00
2023-01-22T14:48:16.008Z,383.10
2023-01-22T14:50:43.941Z,140.80
2023-01-22T14:53:12.100Z,130.60
2023-01-22T14:55:39.874Z,141.20
2023-01-22T14:58:07.572Z,140.10
2023-01-22T15:00:35.869Z,172.10
2023-01-22T15:03:03.869Z,162.20
2023-01-22T15:05:33.359Z,160.10
2023-01-22T15:08:03.138Z,150.20
2023-01-22T15:10:30.783Z,387.70
2023-01-22T15:12:58.498Z,255.80
2023-01-22T15:15:28.428Z,146.10
2023-01-22T15:17:57.684Z,133.00
2023-01-22T15:20:26.302Z,141.30
2023-01-22T15:22:54.102Z,127.00
2023-01-22T15:25:22.147Z,150.50
2023-01-22T15:27:49.867Z,161.30
2023-01-22T15:30:17.932Z,146.70
2023-01-22T15:32:45.884Z,157.10
2023-01-22T15:35:13.581Z,136.50
2023-01-22T15:37:41.279Z,150.10
2023-01-22T15:40:10.208Z,140.20
2023-01-22T15:42:38.052Z,145.30
2023-01-22T15:45:06.897Z,151.10
2023-01-22T15:47:34.720Z,149.70
2023-01-22T15:50:02.660Z,150.90
2023-01-22T15:52:30.332Z,139.90
2023-01-22T15:54:58.056Z,150.70
2023-01-22T15:57:25.828Z,155.80
2023-01-22T15:59:53.575Z,181.80
2023-01-22T16:02:21.284Z,143.70
2023-01-22T16:04:49.247Z,155.60
2023-01-22T16:07:16.910Z,163.90
2023-01-22T16:09:44.605Z,143.20
2023-01-22T16:12:12.698Z,161.40
2023-01-22T16:14:40.559Z,149.40
2023-01-22T16:17:08.247Z,145.60
2023-01-22T16:19:35.916Z,174.40
2023-01-22T16:22:03.611Z,150.50
2023-01-22T16:24:31.438Z,154.50
2023-01-22T16:26:59.553Z,151.20
2023-01-22T16:29:27.250Z,156.50
2023-01-22T16:31:55.048Z,139.20
2023-01-22T16:34:23.315Z,143.60
2023-01-22T16:36:51.044Z,145.30
2023-01-22T16:39:20.355Z,173.80
2023-01-22T16:41:49.952Z,177.80
2023-01-22T16:44:20.043Z,142.70
2023-01-22T16:46:49.490Z,134.20
2023-01-22T16:49:19.694Z,135.50
2023-01-22T16:51:49.675Z,139.10
2023-01-22T16:54:36.960Z,134.00
2023-01-22T16:57:06.485Z,133.60
2023-01-22T16:59:36.153Z,133.30
2023-01-22T17:02:05.695Z,134.70
2023-01-22T17:04:33.534Z,123.00
2023-01-22T17:07:01.385Z,128.30
2023-01-22T17:09:35.873Z,124.80
2023-01-22T17:12:04.785Z,129.20
2023-01-22T17:14:36.564Z,124.60
2023-01-22T17:17:05.865Z,130.30
2023-01-22T17:19:33.904Z,129.60
2023-01-22T17:22:01.890Z,124.80
2023-01-22T17:24:31.027Z,117.50
2023-01-22T17:27:02.235Z,126.90
2023-01-22T17:29:34.828Z,120.80
2023-01-22T17:32:03.541Z,123.30
2023-01-22T17:34:31.373Z,140.20
2023-01-22T17:36:59.171Z,122.70
2023-01-22T17:39:27.723Z,124.00
2023-01-22T17:41:55.590Z,122.50
2023-01-22T17:44:27.454Z,121.40
2023-01-22T17:46:59.435Z,129.40
2023-01-22T17:49:27.564Z,142.70
2023-01-22T17:51:55.782Z,123.40
2023-01-22T17:54:23.509Z,127.50
2023-01-22T17:56:53.164Z,135.60
2023-01-22T17:59:22.362Z,131.90
2023-01-22T18:01:50.463Z,119.80
2023-01-22T18:04:18.298Z,129.60
2023-01-22T18:06:46.052Z,133.90
2023-01-22T18:09:13.820Z,141.90
2023-01-22T18:11:42.209Z,145.80
2023-01-22T18:14:15.701Z,137.60
2023-01-22T18:16:44.064Z,137.20
2023-01-22T18:19:11.970Z,129.90
2023-01-22T18:21:40.817Z,140.20
2023-01-22T18:24:10.447Z,144.20
2023-01-22T18:26:38.307Z,139.50
2023-01-22T18:29:06.251Z,146.70
2023-01-22T18:31:34.450Z,130.20
2023-01-22T18:34:04.790Z,119.90
2023-01-22T18:36:35.531Z,119.20
2023-01-22T18:39:05.896Z,110.30
2023-01-22T18:41:33.674Z,116.60
2023-01-22T18:44:02.520Z,119.40
2023-01-22T18:46:41.304Z,119.50
2023-01-22T18:49:16.172Z,116.00
2023-01-22T18:51:45.691Z,118.10
2023-01-22T18:54:13.454Z,119.10
2023-01-22T18:56:41.211Z,109.10
2023-01-22T18:59:09.080Z,105.50
2023-01-22T19:01:38.552Z,123.60
2023-01-22T19:04:08.836Z,112.90
2023-01-22T19:06:38.780Z,112.60
2023-01-22T19:09:12.186Z,120.10
2023-01-22T19:11:43.367Z,117.90
2023-01-22T19:14:14.656Z,117.00
2023-01-22T19:16:48.341Z,104.60
2023-01-22T19:19:16.871Z,103.00
2023-01-22T19:21:47.618Z,121.40
2023-01-22T19:24:19.339Z,99.70
2023-01-22T19:26:47.239Z,99.80
2023-01-22T19:29:19.899Z,106.90
2023-01-22T19:31:51.870Z,109.30
2023-01-22T19:34:25.333Z,107.50
2023-01-22T19:37:02.181Z,107.30
2023-01-22T19:39:30.053Z,101.80
2023-01-22T19:42:01.809Z,94.20
2023-01-22T19:44:30.310Z,102.10
2023-01-22T19:47:00.180Z,97.10
2023-01-22T19:49:28.414Z,105.90
2023-01-22T19:51:56.615Z,98.40
2023-01-22T19:54:24.949Z,107.40
2023-01-22T19:56:53.412Z,103.80
2023-01-22T19:59:22.467Z,95.60
2023-01-22T20:01:51.028Z,95.20
2023-01-22T20:04:23.361Z,102.80
2023-01-22T20:06:55.398Z,87.00
2023-01-22T20:09:23.222Z,93.30
2023-01-22T20:11:55.541Z,92.80
2023-01-22T20:14:29.885Z,96.50
2023-01-22T20:16:59.998Z,99.00
2023-01-22T20:19:28.895Z,103.00
2023-01-22T20:21:56.792Z,105.00
2023-01-22T20:24:24.459Z,101.20
2023-01-22T20:26:55.733Z,115.80
2023-01-22T20:29:23.482Z,109.50
2023-01-22T20:31:52.659Z,109.70
2023-01-22T20:34:21.237Z,111.20
2023-01-22T20:36:48.987Z,119.20
2023-01-22T20:39:16.731Z,107.00
2023-01-22T20:41:45.723Z,112.30
2023-01-22T20:44:14.332Z,115.70
2023-01-22T20:46:44.485Z,113.70
2023-01-22T20:49:13.114Z,114.60
2023-01-22T20:51:42.479Z,117.30
2023-01-22T20:54:10.826Z,119.00
2023-01-22T20:56:38.625Z,130.30
2023-01-22T20:59:10.015Z,119.00
2023-01-22T21:01:38.209Z,136.70
2023-01-22T21:04:06.498Z,145.00
2023-01-22T21:06:35.679Z,128.30
2023-01-22T21:09:03.850Z,129.20
2023-01-22T21:11:32.677Z,147.90
2023-01-22T21:14:04.040Z,144.00
2023-01-22T21:16:37.863Z,141.10
2023-01-22T21:19:15.760Z,138.30
2023-01-22T21:21:43.718Z,138.00
2023-01-22T21:24:11.780Z,165.60
2023-01-22T21:26:39.990Z,155.50
2023-01-22T21:29:11.291Z,150.50
2023-01-22T21:31:39.006Z,152.50
2023-01-22T21:34:08.535Z,141.80
2023-01-22T21:36:39.377Z,147.30
2023-01-22T21:39:10.047Z,152.30
2023-01-22T21:41:38.569Z,132.40
2023-01-22T21:44:25.293Z,142.00
2023-01-22T21:46:52.923Z,137.20
2023-01-22T21:49:23.477Z,143.00
2023-01-22T21:51:55.565Z,139.70
2023-01-22T21:54:35.184Z,139.80
2023-01-22T21:57:04.013Z,143.70
2023-01-22T21:59:32.236Z,143.60
2023-01-22T22:01:59.894Z,149.70
2023-01-22T22:04:27.793Z,127.60
2023-01-22T22:06:56.003Z,137.10
2023-01-22T22:09:28.264Z,140.20
2023-01-22T22:11:58.119Z,151.20
2023-01-22T22:14:26.166Z,155.30
2023-01-22T22:16:54.231Z,166.80
2023-01-22T22:19:22.760Z,154.20
2023-01-22T22:21:51.155Z,192.60
2023-01-22T22:24:19.738Z,176.60
2023-01-22T22:26:47.438Z,199.80
2023-01-22T22:29:15.207Z,153.40
2023-01-22T22:31:43.231Z,149.30
2023-01-22T22:34:10.999Z,182.60
2023-01-22T22:36:38.983Z,152.80
2023-01-22T22:39:06.757Z,172.50
2023-01-22T22:41:36.924Z,207.40
2023-01-22T22:44:05.353Z,166.90
2023-01-22T22:46:36.092Z,201.10
2023-01-22T22:49:04.395Z,188.30
2023-01-22T22:51:37.307Z,198.80
2023-01-22T22:54:08.053Z,191.40
2023-01-22T22:56:35.771Z,173.50
2023-01-22T22:59:05.210Z,180.90
2023-01-22T23:01:33.319Z,202.60
2023-01-22T23:04:01.194Z,192.70
2023-01-22T23:06:31.174Z,173.20
2023-01-22T23:09:13.525Z,209.90
2023-01-22T23:11:41.877Z,227.10
2023-01-22T23:14:10.162Z,136.60
2023-01-22T23:16:42.655Z,156.60
2023-01-22T23:19:16.841Z,207.00
2023-01-22T23:21:45.416Z,188.10
2023-01-22T23:24:13.990Z,186.80
2023-01-22T23:26:43.376Z,189.20
2023-01-22T23:29:14.283Z,176.00
2023-01-22T23:31:42.463Z,182.20
2023-01-22T23:34:12.661Z,249.90
2023-01-22T23:36:43.699Z,194.70
2023-01-22T23:39:12.949Z,203.80
2023-01-22T23:41:41.792Z,221.80
2023-01-22T23:44:09.686Z,298.40
2023-01-22T23:46:37.622Z,206.60
2023-01-22T23:49:05.807Z,233.20
2023-01-22T23:51:33.463Z,237.20
2023-01-22T23:54:01.066Z,191.80
2023-01-22T23:56:32.565Z,230.70
2023-01-22T23:59:00.211Z,195.40
